Time;durP1;ratioP1;P1;durP2;ratioP2;P2;SDS_P1;SDS_P2;PMS_P1;PMS_P2;Temp;Humidity;BMP_temperature;BMP_pressure;BME280_temperature;BME280_humidity;BME280_pressure;Samples;Min_cycle;Max_cycle;Signal;HPM_P1;HPM_P2
2021/11/09 00:00:07;;;;;;;3.25;1.35;;;;;;;;;;5037192;28;20191;-50
2021/11/09 00:02:33;;;;;;;1.58;1.48;;;;;;;;;;5036782;28;20245;-50
2021/11/09 00:05:01;;;;;;;1.98;1.50;;;;;;;;;;5036903;28;20247;-50
2021/11/09 00:07:36;;;;;;;2.15;1.50;;;;;;;;;;5037395;28;20222;-50
2021/11/09 00:10:07;;;;;;;2.17;1.60;;;;;;;;;;5034055;28;20179;-50
2021/11/09 00:12:37;;;;;;;3.45;1.73;;;;;;;;;;5034548;28;20475;-50
2021/11/09 00:15:04;;;;;;;1.80;1.70;;;;;;;;;;5035776;28;20605;-50
2021/11/09 00:17:30;;;;;;;2.15;1.98;;;;;;;;;;5036806;28;20233;-49
2021/11/09 00:19:57;;;;;;;2.63;1.80;;;;;;;;;;5037168;28;20168;-50
2021/11/09 00:22:24;;;;;;;3.63;1.70;;;;;;;;;;5037084;28;20595;-49
2021/11/09 00:24:50;;;;;;;1.45;1.35;;;;;;;;;;5036718;28;20180;-50
2021/11/09 00:27:16;;;;;;;1.85;1.50;;;;;;;;;;5028865;28;20192;-50
2021/11/09 00:29:42;;;;;;;2.25;1.70;;;;;;;;;;5017360;28;20260;-50
2021/11/09 00:32:09;;;;;;;2.10;1.75;;;;;;;;;;5017675;28;20253;-50
2021/11/09 00:34:36;;;;;;;2.00;1.40;;;;;;;;;;5030732;28;20233;-50
2021/11/09 00:37:03;;;;;;;2.10;1.60;;;;;;;;;;5037018;28;20214;-50
2021/11/09 00:39:29;;;;;;;1.83;1.45;;;;;;;;;;5036902;28;20279;-50
2021/11/09 00:41:55;;;;;;;1.70;1.60;;;;;;;;;;5036834;28;20201;-50
2021/11/09 00:44:23;;;;;;;2.90;1.50;;;;;;;;;;5034856;28;20725;-50
2021/11/09 00:46:49;;;;;;;1.75;1.60;;;;;;;;;;5036053;28;20514;-50
2021/11/09 00:49:15;;;;;;;2.40;1.60;;;;;;;;;;5036688;28;20172;-50
2021/11/09 00:51:43;;;;;;;1.67;1.52;;;;;;;;;;5036488;28;20190;-49
2021/11/09 00:54:09;;;;;;;2.22;1.48;;;;;;;;;;5035995;28;20210;-50
2021/11/09 00:56:35;;;;;;;1.80;1.40;;;;;;;;;;5036028;28;20164;-50
2021/11/09 00:59:01;;;;;;;2.25;1.20;;;;;;;;;;5036380;28;20586;-50
2021/11/09 01:01:27;;;;;;;1.60;1.50;;;;;;;;;;5023191;28;20291;-49
2021/11/09 01:03:54;;;;;;;1.95;1.52;;;;;;;;;;5031308;28;20571;-50
2021/11/09 01:06:20;;;;;;;1.63;1.52;;;;;;;;;;5036154;28;20172;-50
2021/11/09 01:08:46;;;;;;;1.40;1.30;;;;;;;;;;5036683;28;20172;-50
2021/11/09 01:11:12;;;;;;;1.92;1.58;;;;;;;;;;5035871;28;20191;-49
2021/11/09 01:13:38;;;;;;;1.70;1.50;;;;;;;;;;5035785;28;20183;-50
2021/11/09 01:16:04;;;;;;;1.67;1.25;;;;;;;;;;5035824;28;20184;-50
2021/11/09 01:18:32;;;;;;;1.55;1.15;;;;;;;;;;5034792;28;20211;-50
2021/11/09 01:20:59;;;;;;;1.45;1.35;;;;;;;;;;5035897;28;20179;-49
2021/11/09 01:23:25;;;;;;;1.40;1.30;;;;;;;;;;5035571;28;20263;-49
2021/11/09 01:25:52;;;;;;;1.60;1.48;;;;;;;;;;5034491;28;20186;-50
2021/11/09 01:28:18;;;;;;;1.98;1.60;;;;;;;;;;5035880;28;20531;-50
2021/11/09 01:30:44;;;;;;;1.63;1.42;;;;;;;;;;5035832;28;20183;-50
2021/11/09 01:33:10;;;;;;;1.65;1.48;;;;;;;;;;5032306;28;20180;-50
2021/11/09 01:35:36;;;;;;;1.80;1.42;;;;;;;;;;5023593;28;20230;-50
2021/11/09 01:38:03;;;;;;;2.08;1.52;;;;;;;;;;5035897;28;20192;-50
2021/11/09 01:40:29;;;;;;;2.00;1.58;;;;;;;;;;5035717;28;20176;-50
2021/11/09 01:42:56;;;;;;;1.48;1.38;;;;;;;;;;5035360;28;20166;-50
2021/11/09 01:45:23;;;;;;;1.73;1.55;;;;;;;;;;5035552;28;20547;-50
2021/11/09 01:47:50;;;;;;;1.52;1.42;;;;;;;;;;5034679;28;20203;-50
2021/11/09 01:50:19;;;;;;;2.03;1.40;;;;;;;;;;5030589;28;20177;-50
2021/11/09 01:52:45;;;;;;;2.03;1.52;;;;;;;;;;5015513;28;20226;-50
2021/11/09 01:55:13;;;;;;;1.40;1.30;;;;;;;;;;5015385;28;20259;-50
2021/11/09 01:57:39;;;;;;;1.50;1.40;;;;;;;;;;5028843;28;20211;-50
2021/11/09 02:00:09;;;;;;;1.73;1.40;;;;;;;;;;5035358;28;20176;-49
2021/11/09 02:02:35;;;;;;;1.35;1.20;;;;;;;;;;5035105;28;20186;-50
2021/11/09 02:05:02;;;;;;;1.77;1.30;;;;;;;;;;5034958;28;20176;-50
2021/11/09 02:07:28;;;;;;;1.33;1.23;;;;;;;;;;5028372;28;20180;-50
2021/11/09 02:09:54;;;;;;;1.85;1.55;;;;;;;;;;5024813;28;20463;-50
2021/11/09 02:12:20;;;;;;;1.45;1.35;;;;;;;;;;5035325;28;20180;-50
2021/11/09 02:14:46;;;;;;;1.70;1.30;;;;;;;;;;5034822;28;20179;-50
2021/11/09 02:17:12;;;;;;;2.65;1.48;;;;;;;;;;5035268;28;20222;-50
2021/11/09 02:19:38;;;;;;;1.77;1.50;;;;;;;;;;5035197;28;20243;-50
2021/11/09 02:22:04;;;;;;;1.63;1.40;;;;;;;;;;5035201;28;20214;-50
2021/11/09 02:24:30;;;;;;;1.38;1.27;;;;;;;;;;5028248;28;20259;-50
2021/11/09 02:26:56;;;;;;;2.80;1.63;;;;;;;;;;5035514;28;20195;-50
2021/11/09 02:29:22;;;;;;;1.50;1.40;;;;;;;;;;5035153;28;20471;-51
2021/11/09 02:31:48;;;;;;;1.38;1.27;;;;;;;;;;5035388;28;20184;-50
2021/11/09 02:34:15;;;;;;;1.42;1.33;;;;;;;;;;5035172;28;20207;-50
2021/11/09 02:36:41;;;;;;;1.52;1.40;;;;;;;;;;5034652;28;20591;-50
2021/11/09 02:39:07;;;;;;;1.38;1.27;;;;;;;;;;5035183;28;20202;-50
2021/11/09 02:41:33;;;;;;;1.70;1.38;;;;;;;;;;5020926;28;20627;-50
2021/11/09 02:44:00;;;;;;;1.98;1.40;;;;;;;;;;5023305;28;20463;-50
2021/11/09 02:49:26;;;;;;;1.48;1.35;;;;;;;;;;5034603;28;20192;-50
2021/11/09 02:51:56;;;;;;;1.30;1.20;;;;;;;;;;5035077;28;20411;-50
2021/11/09 02:57:31;;;;;;;1.55;1.33;;;;;;;;;;5034758;28;20207;-50
2021/11/09 03:02:36;;;;;;;1.80;1.10;;;;;;;;;;5034043;28;20203;-50
2021/11/09 03:05:09;;;;;;;1.40;1.30;;;;;;;;;;5034296;28;20233;-50
2021/11/09 03:10:21;;;;;;;1.52;1.30;;;;;;;;;;5036050;28;20211;-50
2021/11/09 03:12:47;;;;;;;1.20;1.10;;;;;;;;;;5037734;28;20566;-50
2021/11/09 03:15:14;;;;;;;1.35;1.20;;;;;;;;;;5038402;28;20188;-50
2021/11/09 03:17:51;;;;;;;1.52;1.38;;;;;;;;;;5038759;28;20196;-50
2021/11/09 03:39:56;;;;;;;1.35;1.23;;;;;;;;;;5038411;28;20183;-50
2021/11/09 03:45:07;;;;;;;1.27;1.17;;;;;;;;;;5036909;28;20195;-50
2021/11/09 03:47:37;;;;;;;1.30;1.20;;;;;;;;;;5034666;28;20191;-50
2021/11/09 03:50:04;;;;;;;1.25;1.15;;;;;;;;;;5037332;28;20176;-50
2021/11/09 03:52:38;;;;;;;1.63;1.27;;;;;;;;;;5037328;28;20219;-50
2021/11/09 03:55:05;;;;;;;2.03;1.33;;;;;;;;;;5020383;28;20184;-50
2021/11/09 03:57:42;;;;;;;1.48;1.35;;;;;;;;;;5037156;28;20526;-50
2021/11/09 04:00:18;;;;;;;1.52;1.38;;;;;;;;;;5037553;28;20156;-50
2021/11/09 04:05:13;;;;;;;1.20;1.10;;;;;;;;;;5037364;28;20175;-50
2021/11/09 04:15:32;;;;;;;2.50;1.45;;;;;;;;;;5036968;28;20218;-50
2021/11/09 04:18:28;;;;;;;2.50;1.15;;;;;;;;;;5036801;28;20214;-50
2021/11/09 05:01:09;;;;;;;1.63;1.20;;;;;;;;;;5036483;28;20176;-51
2021/11/09 05:10:07;;;;;;;3.50;1.40;;;;;;;;;;5035935;28;20203;-50
2021/11/09 05:12:33;;;;;;;1.25;1.15;;;;;;;;;;5035298;28;20579;-50
2021/11/09 05:15:00;;;;;;;1.92;1.40;;;;;;;;;;5034038;28;20192;-50
2021/11/09 05:17:26;;;;;;;1.80;1.20;;;;;;;;;;5032865;28;20608;-50
2021/11/09 05:19:52;;;;;;;2.65;1.60;;;;;;;;;;5034675;28;20266;-50
2021/11/09 05:22:18;;;;;;;2.00;1.50;;;;;;;;;;5035668;28;20470;-50
2021/11/09 05:24:45;;;;;;;2.83;1.88;;;;;;;;;;5035069;28;20163;-49
2021/11/09 05:27:15;;;;;;;4.82;1.77;;;;;;;;;;5035656;28;20571;-50
2021/11/09 05:29:41;;;;;;;3.83;2.00;;;;;;;;;;5035517;28;20168;-50
2021/11/09 05:32:07;;;;;;;8.50;3.00;;;;;;;;;;5028155;28;20279;-50
2021/11/09 05:34:33;;;;;;;13.77;3.80;;;;;;;;;;5015262;28;20219;-49
2021/11/09 05:36:59;;;;;;;14.05;4.18;;;;;;;;;;5015681;28;20196;-50
2021/11/09 05:39:35;;;;;;;12.32;4.47;;;;;;;;;;5029624;28;20176;-50
2021/11/09 05:42:01;;;;;;;22.05;5.53;;;;;;;;;;5035122;28;20228;-51
2021/11/09 05:44:28;;;;;;;21.02;5.82;;;;;;;;;;5035122;28;20176;-50
2021/11/09 05:46:54;;;;;;;20.27;6.70;;;;;;;;;;5033506;28;20192;-49
2021/11/09 05:49:21;;;;;;;22.20;6.90;;;;;;;;;;5034892;28;20192;-49
2021/11/09 05:51:47;;;;;;;26.63;7.63;;;;;;;;;;5034952;28;20203;-51
2021/11/09 05:54:13;;;;;;;25.98;8.25;;;;;;;;;;5034795;28;20229;-50
2021/11/09 05:56:39;;;;;;;30.30;8.93;;;;;;;;;;5034621;28;20172;-50
2021/11/09 05:59:05;;;;;;;33.55;8.48;;;;;;;;;;5035161;28;20179;-50
2021/11/09 06:01:31;;;;;;;29.38;9.20;;;;;;;;;;5034219;28;20510;-50
2021/11/09 06:03:57;;;;;;;30.35;9.85;;;;;;;;;;5034444;28;20274;-50
2021/11/09 06:06:23;;;;;;;33.17;9.50;;;;;;;;;;5034854;28;20183;-50
2021/11/09 06:08:50;;;;;;;31.23;10.23;;;;;;;;;;5034567;28;20445;-51
2021/11/09 06:11:17;;;;;;;35.03;11.25;;;;;;;;;;5034447;28;20191;-49
2021/11/09 06:13:43;;;;;;;31.52;10.18;;;;;;;;;;5032861;28;20175;-49
2021/11/09 06:16:09;;;;;;;30.05;9.65;;;;;;;;;;5034876;28;20516;-51
2021/11/09 06:18:35;;;;;;;30.05;11.02;;;;;;;;;;5034406;28;20215;-51
2021/11/09 06:21:01;;;;;;;31.77;9.73;;;;;;;;;;5034553;28;20180;-49
2021/11/09 06:23:27;;;;;;;30.77;10.90;;;;;;;;;;5016901;28;20202;-51
2021/11/09 06:25:53;;;;;;;36.17;11.30;;;;;;;;;;5014713;28;20557;-51
2021/11/09 06:28:20;;;;;;;31.20;10.50;;;;;;;;;;5024818;28;20215;-50
2021/11/09 06:30:47;;;;;;;35.92;11.15;;;;;;;;;;5034648;28;20171;-50
2021/11/09 06:33:13;;;;;;;31.30;10.15;;;;;;;;;;5033838;28;20886;-49
2021/11/09 06:35:40;;;;;;;39.70;11.63;;;;;;;;;;5034766;28;20179;-49
2021/11/09 06:38:06;;;;;;;33.05;11.48;;;;;;;;;;5033760;28;20298;-50
2021/11/09 06:40:32;;;;;;;33.72;11.57;;;;;;;;;;5033776;28;20223;-50
2021/11/09 06:42:58;;;;;;;36.88;11.73;;;;;;;;;;5020933;28;20187;-50
2021/11/09 06:45:25;;;;;;;35.95;10.60;;;;;;;;;;5033752;28;20183;-51
2021/11/09 06:47:52;;;;;;;34.55;11.70;;;;;;;;;;5034031;28;20183;-50
2021/11/09 06:50:18;;;;;;;33.95;11.05;;;;;;;;;;5034800;28;20171;-50
2021/11/09 06:52:44;;;;;;;29.25;10.88;;;;;;;;;;5033478;28;20433;-49
2021/11/09 06:55:10;;;;;;;31.55;11.07;;;;;;;;;;5033739;28;20183;-50
2021/11/09 06:57:36;;;;;;;33.08;10.70;;;;;;;;;;5033734;28;20246;-51
2021/11/09 07:00:04;;;;;;;31.08;11.15;;;;;;;;;;5034191;28;20466;-51
2021/11/09 07:02:33;;;;;;;30.23;10.60;;;;;;;;;;5033708;28;20183;-49
2021/11/09 07:04:59;;;;;;;31.27;11.25;;;;;;;;;;5033001;28;20261;-49
2021/11/09 07:07:25;;;;;;;32.22;10.88;;;;;;;;;;5033364;28;20320;-50
2021/11/09 07:09:51;;;;;;;29.75;10.52;;;;;;;;;;5029991;28;20608;-50
2021/11/09 07:12:17;;;;;;;31.33;10.88;;;;;;;;;;5029841;28;20184;-50
2021/11/09 07:14:43;;;;;;;34.22;10.65;;;;;;;;;;5033792;28;20229;-49
2021/11/09 07:17:10;;;;;;;26.27;10.48;;;;;;;;;;5034011;28;20508;-50
2021/11/09 07:19:37;;;;;;;26.13;10.05;;;;;;;;;;5034361;28;20203;-51
2021/11/09 07:22:03;;;;;;;26.88;10.10;;;;;;;;;;5033505;28;20221;-50
2021/11/09 07:24:32;;;;;;;25.05;9.70;;;;;;;;;;5032562;28;20183;-50
2021/11/09 07:26:59;;;;;;;27.85;9.52;;;;;;;;;;5034040;28;20199;-51
2021/11/09 07:29:26;;;;;;;31.13;10.02;;;;;;;;;;5034067;28;20574;-51
2021/11/09 07:31:54;;;;;;;24.10;9.30;;;;;;;;;;5033158;28;20195;-50
2021/11/09 07:34:20;;;;;;;24.92;9.90;;;;;;;;;;5014001;28;20183;-49
2021/11/09 07:36:47;;;;;;;25.95;9.40;;;;;;;;;;5031898;28;20191;-50
2021/11/09 07:39:13;;;;;;;27.40;9.32;;;;;;;;;;5033354;28;20172;-50
2021/11/09 07:41:42;;;;;;;24.35;8.88;;;;;;;;;;5034168;28;20162;-49
2021/11/09 07:44:08;;;;;;;26.15;9.50;;;;;;;;;;5033550;28;20251;-51
2021/11/09 07:46:35;;;;;;;26.98;9.93;;;;;;;;;;5033677;28;20215;-49
2021/11/09 07:49:01;;;;;;;24.92;8.95;;;;;;;;;;5033477;28;20180;-50
2021/11/09 07:51:28;;;;;;;21.50;7.93;;;;;;;;;;5033669;28;20184;-50
2021/11/09 07:53:57;;;;;;;19.52;8.77;;;;;;;;;;5014110;28;20227;-49
2021/11/09 07:56:26;;;;;;;17.55;7.65;;;;;;;;;;5030258;28;20298;-50
2021/11/09 08:01:22;;;;;;;20.98;8.57;;;;;;;;;;5036899;28;20180;-50
2021/11/09 08:06:46;;;;;;;20.08;8.32;;;;;;;;;;5038040;28;20183;-50
2021/11/09 08:09:21;;;;;;;23.13;8.40;;;;;;;;;;5036725;28;20172;-50
2021/11/09 08:11:48;;;;;;;22.60;8.50;;;;;;;;;;5036480;28;20168;-51
2021/11/09 08:14:14;;;;;;;21.58;7.80;;;;;;;;;;5035889;28;20172;-50
2021/11/09 08:16:40;;;;;;;18.73;7.93;;;;;;;;;;5036495;28;20646;-49
2021/11/09 08:19:07;;;;;;;17.58;7.97;;;;;;;;;;5035652;28;20267;-50
2021/11/09 08:21:33;;;;;;;19.00;7.55;;;;;;;;;;5024837;28;20282;-50
2021/11/09 08:24:00;;;;;;;22.05;8.13;;;;;;;;;;5031890;28;20183;-51
2021/11/09 08:26:26;;;;;;;20.42;7.63;;;;;;;;;;5030681;28;20237;-50
2021/11/09 08:28:54;;;;;;;19.17;8.02;;;;;;;;;;5033691;28;20200;-50
2021/11/09 08:31:21;;;;;;;17.92;7.68;;;;;;;;;;5035228;28;20192;-52
2021/11/09 08:33:49;;;;;;;15.82;7.68;;;;;;;;;;5039503;28;20190;-49
2021/11/09 08:36:18;;;;;;;18.50;7.43;;;;;;;;;;5031300;28;20954;-49
2021/11/09 08:38:46;;;;;;;16.70;7.53;;;;;;;;;;5034405;28;20249;-50
2021/11/09 08:41:13;;;;;;;21.65;7.57;;;;;;;;;;5034468;28;20371;-51
2021/11/09 08:43:42;;;;;;;17.98;8.02;;;;;;;;;;5030771;28;20626;-50
2021/11/09 08:48:44;;;;;;;15.80;6.93;;;;;;;;;;5034531;28;20192;-50
2021/11/09 08:51:11;;;;;;;16.40;7.22;;;;;;;;;;5030848;28;20188;-51
2021/11/09 08:53:41;;;;;;;13.80;6.90;;;;;;;;;;5034941;28;20224;-49
2021/11/09 08:56:25;;;;;;;18.25;7.82;;;;;;;;;;5033180;28;20869;-50
2021/11/09 09:04:15;;;;;;;13.45;7.30;;;;;;;;;;5035064;28;20472;-49
2021/11/09 09:06:52;;;;;;;18.67;7.72;;;;;;;;;;5034032;28;20182;-50
2021/11/09 09:09:18;;;;;;;18.17;7.05;;;;;;;;;;5026139;28;20319;-50
2021/11/09 09:11:48;;;;;;;17.95;7.07;;;;;;;;;;5028729;28;20278;-50
2021/11/09 09:14:15;;;;;;;14.98;6.63;;;;;;;;;;5031020;28;20191;-50
2021/11/09 09:16:45;;;;;;;15.73;7.07;;;;;;;;;;5031237;28;20187;-50
2021/11/09 09:19:12;;;;;;;15.05;6.30;;;;;;;;;;5024626;28;20183;-51
2021/11/09 09:21:45;;;;;;;15.70;6.93;;;;;;;;;;5033949;28;20183;-51
2021/11/09 09:24:27;;;;;;;12.85;6.63;;;;;;;;;;5028834;28;20184;-51
2021/11/09 09:27:04;;;;;;;15.70;6.72;;;;;;;;;;5031258;28;20621;-49
2021/11/09 09:56:52;;;;;;;10.60;5.40;;;;;;;;;;5032526;28;20478;-50
2021/11/09 09:59:19;;;;;;;11.95;5.05;;;;;;;;;;5038610;28;20503;-49
2021/11/09 10:02:02;;;;;;;11.00;5.03;;;;;;;;;;5030564;28;20505;-51
2021/11/09 10:04:29;;;;;;;12.68;5.75;;;;;;;;;;5033591;28;20721;-51
2021/11/09 10:06:56;;;;;;;14.43;5.82;;;;;;;;;;5034492;28;20176;-51
2021/11/09 10:09:51;;;;;;;10.20;5.32;;;;;;;;;;5040302;28;20184;-50
2021/11/09 10:12:19;;;;;;;7.95;4.75;;;;;;;;;;5025524;28;20637;-50
2021/11/09 10:14:47;;;;;;;10.73;4.90;;;;;;;;;;5022654;28;20173;-49
2021/11/09 10:17:18;;;;;;;9.95;4.88;;;;;;;;;;5014624;28;20220;-50
2021/11/09 10:19:44;;;;;;;8.95;4.60;;;;;;;;;;5023764;28;20180;-50
2021/11/09 10:22:22;;;;;;;9.25;4.78;;;;;;;;;;5034603;28;20207;-49
2021/11/09 10:24:52;;;;;;;8.30;4.78;;;;;;;;;;5033985;28;20163;-50
2021/11/09 10:27:18;;;;;;;10.73;5.10;;;;;;;;;;5034417;28;20479;-51
2021/11/09 10:29:45;;;;;;;8.68;4.63;;;;;;;;;;5033928;28;20462;-51
2021/11/09 10:32:15;;;;;;;9.57;4.60;;;;;;;;;;5032051;28;20440;-50
2021/11/09 10:34:43;;;;;;;9.23;4.65;;;;;;;;;;5033719;28;20186;-51
2021/11/09 10:37:29;;;;;;;10.23;4.50;;;;;;;;;;5034239;28;20195;-49
2021/11/09 10:39:56;;;;;;;8.65;4.35;;;;;;;;;;5014464;28;20443;-50
2021/11/09 10:42:23;;;;;;;8.00;4.20;;;;;;;;;;5014853;28;20168;-49
2021/11/09 10:44:51;;;;;;;8.73;4.68;;;;;;;;;;5014024;28;20192;-50
2021/11/09 10:47:22;;;;;;;7.47;3.85;;;;;;;;;;5027522;28;20184;-51
2021/11/09 10:49:53;;;;;;;11.43;4.95;;;;;;;;;;5034297;28;20203;-49
2021/11/09 10:52:25;;;;;;;7.93;4.03;;;;;;;;;;5034390;28;20174;-50
2021/11/09 10:54:56;;;;;;;8.48;4.93;;;;;;;;;;5033705;28;20171;-50
2021/11/09 10:57:29;;;;;;;7.18;4.07;;;;;;;;;;5034338;28;20577;-50
2021/11/09 11:05:22;;;;;;;7.38;4.07;;;;;;;;;;5034161;28;20186;-51
2021/11/09 11:08:06;;;;;;;7.75;4.53;;;;;;;;;;5034167;28;20532;-49
2021/11/09 11:10:34;;;;;;;7.47;4.35;;;;;;;;;;5034371;28;20198;-51
2021/11/09 11:13:21;;;;;;;8.30;4.40;;;;;;;;;;5032643;28;20176;-51
2021/11/09 11:16:03;;;;;;;7.68;4.07;;;;;;;;;;5033792;28;20188;-50
2021/11/09 11:18:34;;;;;;;9.43;4.57;;;;;;;;;;5034087;28;20610;-51
2021/11/09 11:21:00;;;;;;;5.80;3.63;;;;;;;;;;5025691;28;20187;-50
2021/11/09 11:23:28;;;;;;;6.05;3.55;;;;;;;;;;5023172;28;20480;-51
2021/11/09 11:25:54;;;;;;;6.05;3.78;;;;;;;;;;5033278;28;20490;-50
2021/11/09 11:28:20;;;;;;;6.93;3.45;;;;;;;;;;5033490;28;20290;-50
2021/11/09 11:30:47;;;;;;;6.18;3.67;;;;;;;;;;5033070;28;20193;-49
2021/11/09 11:33:13;;;;;;;5.43;3.30;;;;;;;;;;5036909;28;20241;-51
2021/11/09 11:35:39;;;;;;;7.40;3.58;;;;;;;;;;5037555;28;20481;-50
2021/11/09 11:38:05;;;;;;;4.78;3.00;;;;;;;;;;5027591;28;20200;-51
2021/11/09 11:40:31;;;;;;;5.32;3.22;;;;;;;;;;5017631;28;20164;-50
2021/11/09 11:42:57;;;;;;;5.82;3.10;;;;;;;;;;5031062;28;20234;-50
2021/11/09 11:45:24;;;;;;;5.15;3.13;;;;;;;;;;5025709;28;20182;-49
2021/11/09 11:48:03;;;;;;;5.38;3.20;;;;;;;;;;5032156;28;20180;-51
2021/11/09 11:50:38;;;;;;;5.88;3.10;;;;;;;;;;5033265;28;20183;-50
2021/11/09 11:53:05;;;;;;;5.13;2.75;;;;;;;;;;5033024;28;20207;-49
2021/11/09 11:55:31;;;;;;;4.38;2.72;;;;;;;;;;5032400;28;20259;-49
2021/11/09 11:58:08;;;;;;;4.97;3.08;;;;;;;;;;5027354;28;20207;-49
2021/11/09 12:00:45;;;;;;;4.15;2.83;;;;;;;;;;5033103;28;20213;-50
2021/11/09 12:03:20;;;;;;;6.55;3.05;;;;;;;;;;5029583;28;20198;-50
2021/11/09 12:05:47;;;;;;;4.55;3.00;;;;;;;;;;5034808;28;20959;-50
2021/11/09 12:08:14;;;;;;;4.65;2.95;;;;;;;;;;5031367;28;20192;-49
2021/11/09 12:10:46;;;;;;;5.55;3.00;;;;;;;;;;5035115;28;20172;-50
2021/11/09 12:13:13;;;;;;;4.07;2.70;;;;;;;;;;5035610;28;20188;-50
2021/11/09 12:15:50;;;;;;;4.20;2.72;;;;;;;;;;5036583;28;20588;-51
2021/11/09 12:18:31;;;;;;;4.75;2.92;;;;;;;;;;5036871;28;20214;-49
2021/11/09 12:21:04;;;;;;;4.32;2.58;;;;;;;;;;5036555;28;20606;-50
2021/11/09 12:23:31;;;;;;;4.03;2.75;;;;;;;;;;5036393;28;20172;-50
2021/11/09 12:25:58;;;;;;;3.45;2.30;;;;;;;;;;5036352;28;20168;-51
2021/11/09 12:28:42;;;;;;;3.15;2.42;;;;;;;;;;5034515;28;20207;-49
2021/11/09 12:31:12;;;;;;;4.10;2.63;;;;;;;;;;5028601;28;20187;-50
2021/11/09 12:33:45;;;;;;;3.92;2.42;;;;;;;;;;5035985;28;20188;-50
2021/11/09 12:36:11;;;;;;;4.80;2.70;;;;;;;;;;5036544;28;20175;-51
2021/11/09 12:38:37;;;;;;;4.18;2.40;;;;;;;;;;5036154;28;20475;-51
2021/11/09 12:41:11;;;;;;;3.45;2.38;;;;;;;;;;5036471;28;20168;-51
2021/11/09 12:43:50;;;;;;;3.28;2.60;;;;;;;;;;5033826;28;20203;-51
2021/11/09 12:46:23;;;;;;;4.05;2.47;;;;;;;;;;5034667;28;20183;-50
2021/11/09 12:49:00;;;;;;;3.22;2.20;;;;;;;;;;5035931;28;20188;-49
2021/11/09 12:51:27;;;;;;;4.85;2.13;;;;;;;;;;5035602;28;20185;-50
2021/11/09 12:53:54;;;;;;;4.25;2.42;;;;;;;;;;5035837;28;20502;-50
2021/11/09 12:56:23;;;;;;;4.50;3.00;;;;;;;;;;5035838;28;20453;-51
2021/11/09 12:59:05;;;;;;;3.95;2.28;;;;;;;;;;5035538;28;20598;-50
2021/11/09 13:01:39;;;;;;;3.97;2.28;;;;;;;;;;5024309;28;20180;-49
2021/11/09 13:06:48;;;;;;;3.60;2.20;;;;;;;;;;5030532;28;20566;-50
2021/11/09 13:09:25;;;;;;;3.05;2.03;;;;;;;;;;5035856;28;20203;-49
2021/11/09 13:11:58;;;;;;;3.45;2.00;;;;;;;;;;5035994;28;20172;-49
2021/11/09 13:14:31;;;;;;;3.20;1.95;;;;;;;;;;5035196;28;20571;-49
2021/11/09 13:16:57;;;;;;;2.50;1.90;;;;;;;;;;5031395;28;20180;-50
2021/11/09 13:19:36;;;;;;;2.50;2.15;;;;;;;;;;5020740;28;20175;-50
2021/11/09 13:22:07;;;;;;;3.67;1.90;;;;;;;;;;5035703;28;20179;-49
2021/11/09 13:24:35;;;;;;;2.42;1.88;;;;;;;;;;5034637;28;20187;-51
2021/11/09 13:27:01;;;;;;;3.33;1.83;;;;;;;;;;5015729;28;20220;-50
2021/11/09 13:29:28;;;;;;;2.33;2.10;;;;;;;;;;5015812;28;20247;-50
2021/11/09 13:31:53;;;;;;;2.10;1.90;;;;;;;;;;5026508;28;20513;-50
2021/11/09 13:34:23;;;;;;;2.38;1.92;;;;;;;;;;5032599;28;20211;-49
2021/11/09 13:36:54;;;;;;;2.33;1.80;;;;;;;;;;5034764;28;20207;-50
2021/11/09 13:39:20;;;;;;;3.78;2.08;;;;;;;;;;5034662;28;20275;-50
2021/11/09 13:41:48;;;;;;;2.80;1.65;;;;;;;;;;5035236;28;20160;-49
2021/11/09 13:44:15;;;;;;;1.98;1.50;;;;;;;;;;5021868;28;20175;-49
2021/11/09 13:46:42;;;;;;;1.70;1.50;;;;;;;;;;5034677;28;20203;-50
2021/11/09 13:49:11;;;;;;;2.17;1.55;;;;;;;;;;5034650;28;20214;-51
2021/11/09 13:51:43;;;;;;;3.22;1.85;;;;;;;;;;5032609;28;20560;-50
2021/11/09 13:54:18;;;;;;;1.60;1.50;;;;;;;;;;5033635;28;20175;-49
2021/11/09 13:56:46;;;;;;;1.92;1.70;;;;;;;;;;5035806;28;20262;-49
2021/11/09 13:59:14;;;;;;;2.70;1.55;;;;;;;;;;5033675;28;20275;-50
2021/11/09 14:01:44;;;;;;;2.60;2.17;;;;;;;;;;5034931;28;20204;-50
2021/11/09 14:04:43;;;;;;;2.17;1.67;;;;;;;;;;5033568;28;20210;-49
2021/11/09 14:10:05;;;;;;;2.25;1.40;;;;;;;;;;5025730;28;20188;-49
2021/11/09 14:15:15;;;;;;;1.50;1.40;;;;;;;;;;5033715;28;20271;-50
2021/11/09 14:17:41;;;;;;;3.33;1.73;;;;;;;;;;5034265;28;20266;-50
2021/11/09 14:20:15;;;;;;;2.10;1.58;;;;;;;;;;5034173;28;20199;-49
2021/11/09 14:22:42;;;;;;;1.85;1.40;;;;;;;;;;5034705;28;20180;-51
2021/11/09 14:25:09;;;;;;;2.10;1.58;;;;;;;;;;5031374;28;20175;-49
2021/11/09 14:27:39;;;;;;;1.95;1.70;;;;;;;;;;5033888;28;20227;-50
2021/11/09 14:30:07;;;;;;;2.90;1.50;;;;;;;;;;5034083;28;20238;-49
2021/11/09 14:32:36;;;;;;;1.77;1.58;;;;;;;;;;5034249;28;20548;-50
2021/11/09 14:35:21;;;;;;;1.92;1.70;;;;;;;;;;5033385;28;20230;-49
2021/11/09 14:38:09;;;;;;;2.03;1.60;;;;;;;;;;5034451;28;20294;-50
2021/11/09 14:40:49;;;;;;;1.83;1.58;;;;;;;;;;5026340;28;20563;-50
2021/11/09 14:43:24;;;;;;;2.00;1.30;;;;;;;;;;5022967;28;20184;-50
2021/11/09 14:51:17;;;;;;;1.73;1.50;;;;;;;;;;5039575;28;20188;-50
2021/11/09 14:56:22;;;;;;;3.67;1.48;;;;;;;;;;5032569;28;20164;-50
2021/11/09 14:58:59;;;;;;;2.20;1.30;;;;;;;;;;5033890;28;20238;-49
2021/11/09 15:01:40;;;;;;;2.75;1.52;;;;;;;;;;5034376;28;20250;-50
2021/11/09 15:04:14;;;;;;;1.73;1.30;;;;;;;;;;5033882;28;20179;-50
2021/11/09 15:06:49;;;;;;;2.20;1.38;;;;;;;;;;5036639;28;20167;-50
2021/11/09 15:12:14;;;;;;;2.85;1.48;;;;;;;;;;5038450;28;20171;-50
2021/11/09 15:25:45;;;;;;;1.80;1.45;;;;;;;;;;5036045;28;20190;-50
2021/11/09 15:31:08;;;;;;;3.38;1.67;;;;;;;;;;5034680;28;20194;-51
2021/11/09 15:33:48;;;;;;;1.98;1.33;;;;;;;;;;5037071;28;20172;-49
2021/11/09 15:38:50;;;;;;;1.73;1.40;;;;;;;;;;5017897;28;20211;-49
2021/11/09 15:41:18;;;;;;;2.05;1.23;;;;;;;;;;5018050;28;20169;-49
2021/11/09 15:43:44;;;;;;;2.53;1.40;;;;;;;;;;5030481;28;20582;-51
2021/11/09 15:46:11;;;;;;;2.20;1.50;;;;;;;;;;5036961;28;20184;-49
2021/11/09 15:48:36;;;;;;;2.35;1.30;;;;;;;;;;5035800;28;20203;-49
2021/11/09 15:51:04;;;;;;;2.30;1.40;;;;;;;;;;5037169;28;20172;-50
2021/11/09 15:53:32;;;;;;;1.58;1.15;;;;;;;;;;5037075;28;20539;-50
2021/11/09 15:55:59;;;;;;;2.42;1.08;;;;;;;;;;5037165;28;20172;-51
2021/11/09 15:58:25;;;;;;;1.58;1.30;;;;;;;;;;5037202;28;20245;-49
2021/11/09 16:00:52;;;;;;;1.88;1.52;;;;;;;;;;5036556;28;20172;-50
2021/11/09 16:03:18;;;;;;;2.42;1.50;;;;;;;;;;5036376;28;20198;-50
2021/11/09 16:05:48;;;;;;;1.65;1.20;;;;;;;;;;5035025;28;20176;-49
2021/11/09 16:08:14;;;;;;;3.00;1.42;;;;;;;;;;5037279;28;20171;-50
2021/11/09 16:10:41;;;;;;;1.23;1.10;;;;;;;;;;5032563;28;20173;-51
2021/11/09 16:13:08;;;;;;;1.38;1.27;;;;;;;;;;5026657;28;20195;-49
2021/11/09 16:15:34;;;;;;;1.88;1.10;;;;;;;;;;5035002;28;20175;-51
2021/11/09 16:18:00;;;;;;;1.60;1.38;;;;;;;;;;5022503;28;20204;-50
2021/11/09 16:20:27;;;;;;;1.50;1.40;;;;;;;;;;5033480;28;20551;-50
2021/11/09 16:22:53;;;;;;;2.28;1.40;;;;;;;;;;5036260;28;20199;-50
2021/11/09 16:25:19;;;;;;;1.30;1.10;;;;;;;;;;5036287;28;20184;-50
2021/11/09 16:27:46;;;;;;;2.42;1.42;;;;;;;;;;5036830;28;20199;-49
2021/11/09 16:30:16;;;;;;;1.50;1.40;;;;;;;;;;5036212;28;20199;-50
2021/11/09 16:32:51;;;;;;;1.77;1.40;;;;;;;;;;5035926;28;20188;-50
2021/11/09 16:38:08;;;;;;;1.77;1.55;;;;;;;;;;5033691;28;20477;-50
2021/11/09 16:40:37;;;;;;;1.88;1.60;;;;;;;;;;5032845;28;20184;-50
2021/11/09 16:43:08;;;;;;;1.58;1.45;;;;;;;;;;5032816;28;20728;-49
2021/11/09 16:45:40;;;;;;;2.03;1.55;;;;;;;;;;5034428;28;20418;-49
2021/11/09 16:48:09;;;;;;;2.17;1.83;;;;;;;;;;5032529;28;20179;-49
2021/11/09 16:53:02;;;;;;;2.53;2.10;;;;;;;;;;5023552;28;20271;-49
2021/11/09 16:58:34;;;;;;;4.30;2.90;;;;;;;;;;5041784;28;20215;-49
2021/11/09 17:06:32;;;;;;;5.28;3.28;;;;;;;;;;5027135;28;20188;-50
2021/11/09 18:20:04;;;;;;;13.23;6.82;;;;;;;;;;5034705;28;20186;-50
2021/11/09 18:22:38;;;;;;;11.43;5.70;;;;;;;;;;5034301;28;20259;-50
2021/11/09 18:25:05;;;;;;;11.43;6.00;;;;;;;;;;5033516;28;20187;-50
2021/11/09 18:27:31;;;;;;;14.27;6.43;;;;;;;;;;5032706;28;20504;-50
2021/11/09 18:29:57;;;;;;;12.70;6.13;;;;;;;;;;5034046;28;20186;-50
2021/11/09 18:32:24;;;;;;;13.68;5.57;;;;;;;;;;5034488;28;20498;-51
2021/11/09 18:34:51;;;;;;;12.77;5.88;;;;;;;;;;5031582;28;20210;-50
2021/11/09 18:37:18;;;;;;;13.90;6.20;;;;;;;;;;5034271;28;20168;-50
2021/11/09 18:39:45;;;;;;;11.02;5.40;;;;;;;;;;5034057;28;20175;-50
2021/11/09 18:42:11;;;;;;;12.73;5.85;;;;;;;;;;5034517;28;20171;-50
2021/11/09 18:44:38;;;;;;;13.85;5.68;;;;;;;;;;5030663;28;20179;-50
2021/11/09 18:47:06;;;;;;;13.18;5.82;;;;;;;;;;5033792;28;20199;-50
2021/11/09 18:49:33;;;;;;;9.52;5.75;;;;;;;;;;5033593;28;20194;-49
2021/11/09 18:51:59;;;;;;;10.65;6.10;;;;;;;;;;5034148;28;20180;-49
2021/11/09 18:54:25;;;;;;;11.63;6.20;;;;;;;;;;5033517;28;20218;-50
2021/11/09 18:56:51;;;;;;;10.88;5.90;;;;;;;;;;5038609;28;20229;-50
2021/11/09 18:59:21;;;;;;;10.48;6.13;;;;;;;;;;5035342;28;20286;-49
2021/11/09 19:01:48;;;;;;;8.82;5.53;;;;;;;;;;5029688;28;20176;-49
2021/11/09 19:04:14;;;;;;;11.88;6.55;;;;;;;;;;5033239;28;20463;-50